Terminal Aerodrome Forecast
Issued by NWS

Home | Current Version | Previous Version | Text Only | Print | Product List | Glossary On
Versions: 1 2 3 4 5 6 7 8 9 10 11 12 13 14 15 16 17 18 19 20 21 22 23 24 25 26 27 28 29 30 31 32
000
FTAK31 PAFA 121738
TAFAOM
TAF
PAOM 121738Z 1218/1318 06005KT P6SM BKN015 BKN080 BKN180
      TEMPO 1218/1221 SCT015
     FM122100 22008KT P6SM VCSH BKN060 BKN100
     FM130600 25006KT P6SM SCT060 BKN120=

USA.gov is the U.S. government's official web portal to all federal, state and local government web resources and services.